メインページ
METAR-TAF:

METAR-TAF

空港 :

Andahuaylas, ペルー

緯度: 13-43S, 経度: 073-21W, 海抜: 3444m

現時点の気象観測

当レポートは5分前の18:00(UTC)に作成
北/北東の風 10kt
気温 12°C
湿度 67%
気圧 1034 hPa
視程: 2000m
高度1300ftの雲は散在している
高度4000ftの曇り
散在霧

METAR: SPHY 171800Z 03010KT 7000 2000NE BCFG SCT013 OVC040 12/06 Q1034 RMK PP000

時間: 13:05 (18:05 UTC)

予報

当レポートは1時間5分前の17:00(UTC)に作成
予報は17日の 18時(UTC)から 18日の 18時(UTC)まで有効
の風 10kt
視程: 7000m
高度1300ftの雲は散在している
高度4000ftの千切れ雲あり
17日の 20時(UTC)から 17日の 22時(UTC)まで徐々に
の風 kt

TAF: SPHY 171700Z 1718/1818 36010KT 7000 SCT013 BKN040 TX16/1719Z TN02/1811Z BECMG 1720/1722 00000KT

4,000以上の空港の気象観測と天気予報(METAR報とTAF報)

利用可能な観測所は地図上に黄色い丸と赤い丸で示す。

丸の上にカーソルを重ねると観測所名を参照できる。

次にクリックすると気象観測と天気予報を参照できる。

マップの切り替え:黒色「×」印の緑ボタンをクリックして拡大、「-」印の緑ボタンをクリックして縮小、緑色の三角印をクリックして隣りの地図に切り替え


METAR-TAF: